sensor_id;sensor_type;location;lat;lon;timestamp;pressure;altitude;pressure_sealevel;temperature;humidity
47260;BME280;32999;52.412;4.890;2022-07-29T00:02:02;101873.03;;;17.70;100.00
47260;BME280;32999;52.412;4.890;2022-07-29T00:07:05;101864.94;;;17.70;100.00
47260;BME280;32999;52.412;4.890;2022-07-29T00:12:07;101872.63;;;17.73;100.00
47260;BME280;32999;52.412;4.890;2022-07-29T00:17:09;101846.81;;;17.57;100.00
47260;BME280;32999;52.412;4.890;2022-07-29T00:22:12;101815.63;;;17.48;100.00
47260;BME280;32999;52.412;4.890;2022-07-29T00:27:14;101755.97;;;17.23;100.00
47260;BME280;32999;52.412;4.890;2022-07-29T00:32:15;101846.81;;;17.63;100.00
47260;BME280;32999;52.412;4.890;2022-07-29T00:37:18;101796.28;;;17.51;100.00
47260;BME280;32999;52.412;4.890;2022-07-29T00:42:20;101838.06;;;17.61;100.00
47260;BME280;32999;52.412;4.890;2022-07-29T00:47:22;101834.97;;;17.91;100.00
47260;BME280;32999;52.412;4.890;2022-07-29T00:52:25;101826.47;;;17.81;100.00
47260;BME280;32999;52.412;4.890;2022-07-29T00:57:26;101834.75;;;17.59;100.00
47260;BME280;32999;52.412;4.890;2022-07-29T01:02:28;101827.03;;;17.63;100.00
47260;BME280;32999;52.412;4.890;2022-07-29T01:07:32;101818.97;;;17.56;100.00
47260;BME280;32999;52.412;4.890;2022-07-29T01:12:36;101781.94;;;17.37;100.00
47260;BME280;32999;52.412;4.890;2022-07-29T01:17:43;101820.44;;;17.79;100.00
47260;BME280;32999;52.412;4.890;2022-07-29T01:23:18;101813.97;;;17.66;100.00
47260;BME280;32999;52.412;4.890;2022-07-29T01:28:49;101784.22;;;17.40;100.00
47260;BME280;32999;52.412;4.890;2022-07-29T01:33:57;101816.06;;;17.64;100.00
47260;BME280;32999;52.412;4.890;2022-07-29T01:39:05;101816.06;;;17.64;100.00
47260;BME280;32999;52.412;4.890;2022-07-29T01:44:17;101807.31;;;17.76;100.00
47260;BME280;32999;52.412;4.890;2022-07-29T01:49:24;101796.06;;;17.59;100.00
47260;BME280;32999;52.412;4.890;2022-07-29T01:54:30;101768.00;;;17.40;100.00
47260;BME280;32999;52.412;4.890;2022-07-29T01:59:36;101770.72;;;17.40;100.00
47260;BME280;32999;52.412;4.890;2022-07-29T02:04:39;101768.00;;;17.40;100.00
47260;BME280;32999;52.412;4.890;2022-07-29T02:09:43;101766.34;;;17.39;100.00
47260;BME280;32999;52.412;4.890;2022-07-29T02:14:51;101788.41;;;17.49;100.00
47260;BME280;32999;52.412;4.890;2022-07-29T02:19:56;101793.16;;;17.60;100.00
47260;BME280;32999;52.412;4.890;2022-07-29T02:24:59;101771.13;;;17.50;100.00
47260;BME280;32999;52.412;4.890;2022-07-29T02:30:06;101784.66;;;17.70;100.00
47260;BME280;32999;52.412;4.890;2022-07-29T02:35:14;101774.47;;;17.46;100.00
47260;BME280;32999;52.412;4.890;2022-07-29T02:40:17;101778.19;;;17.38;100.00
47260;BME280;32999;52.412;4.890;2022-07-29T02:45:20;101774.47;;;17.26;100.00
47260;BME280;32999;52.412;4.890;2022-07-29T02:50:31;101774.03;;;17.42;100.00
47260;BME280;32999;52.412;4.890;2022-07-29T02:55:37;101770.50;;;17.35;100.00
47260;BME280;32999;52.412;4.890;2022-07-29T03:00:42;101770.53;;;17.28;100.00
47260;BME280;32999;52.412;4.890;2022-07-29T03:05:44;101746.19;;;17.22;100.00
47260;BME280;32999;52.412;4.890;2022-07-29T03:10:46;101763.03;;;17.17;100.00
47260;BME280;32999;52.412;4.890;2022-07-29T03:15:50;101761.78;;;17.33;100.00
47260;BME280;32999;52.412;4.890;2022-07-29T03:20:52;101732.69;;;17.22;100.00
47260;BME280;32999;52.412;4.890;2022-07-29T03:25:54;101765.53;;;17.32;100.00
47260;BME280;32999;52.412;4.890;2022-07-29T03:30:57;101753.47;;;17.41;100.00
47260;BME280;32999;52.412;4.890;2022-07-29T03:35:59;101747.66;;;17.44;100.00
47260;BME280;32999;52.412;4.890;2022-07-29T03:41:05;101729.13;;;17.41;100.00
47260;BME280;32999;52.412;4.890;2022-07-29T03:46:11;101754.50;;;17.66;100.00
47260;BME280;32999;52.412;4.890;2022-07-29T03:51:22;101753.84;;;17.58;100.00
47260;BME280;32999;52.412;4.890;2022-07-29T03:56:27;101740.59;;;17.30;100.00
47260;BME280;32999;52.412;4.890;2022-07-29T04:01:32;101753.03;;;17.44;100.00
47260;BME280;32999;52.412;4.890;2022-07-29T04:06:39;101748.06;;;17.34;100.00
47260;BME280;32999;52.412;4.890;2022-07-29T04:11:41;101730.59;;;17.37;100.00
47260;BME280;32999;52.412;4.890;2022-07-29T04:16:45;101739.13;;;17.54;100.00
47260;BME280;32999;52.412;4.890;2022-07-29T04:21:46;101757.41;;;17.65;100.00
47260;BME280;32999;52.412;4.890;2022-07-29T04:26:48;101756.59;;;17.64;100.00
47260;BME280;32999;52.412;4.890;2022-07-29T04:31:52;101752.63;;;17.74;100.00
47260;BME280;32999;52.412;4.890;2022-07-29T04:36:54;101753.63;;;17.86;100.00
47260;BME280;32999;52.412;4.890;2022-07-29T04:41:55;101739.47;;;17.84;100.00
47260;BME280;32999;52.412;4.890;2022-07-29T04:46:59;101744.88;;;17.90;100.00
47260;BME280;32999;52.412;4.890;2022-07-29T04:52:00;101764.47;;;17.79;100.00
47260;BME280;32999;52.412;4.890;2022-07-29T04:57:02;101733.91;;;17.79;100.00
47260;BME280;32999;52.412;4.890;2022-07-29T05:02:05;101697.09;;;17.71;100.00
47260;BME280;32999;52.412;4.890;2022-07-29T05:07:07;101657.81;;;17.55;100.00
47260;BME280;32999;52.412;4.890;2022-07-29T05:12:08;101751.34;;;17.83;100.00
47260;BME280;32999;52.412;4.890;2022-07-29T05:17:12;101658.50;;;17.24;100.00
47260;BME280;32999;52.412;4.890;2022-07-29T05:22:14;101725.81;;;17.65;100.00
47260;BME280;32999;52.412;4.890;2022-07-29T05:27:15;101747.84;;;17.76;100.00
47260;BME280;32999;52.412;4.890;2022-07-29T05:32:18;101654.38;;;16.95;100.00
47260;BME280;32999;52.412;4.890;2022-07-29T05:37:20;101689.66;;;17.40;100.00
47260;BME280;32999;52.412;4.890;2022-07-29T05:42:22;101715.59;;;17.61;100.00
47260;BME280;32999;52.412;4.890;2022-07-29T05:47:25;101689.03;;;17.38;100.00
47260;BME280;32999;52.412;4.890;2022-07-29T05:52:26;101714.16;;;17.65;100.00
47260;BME280;32999;52.412;4.890;2022-07-29T05:57:28;101713.31;;;17.78;100.00
47260;BME280;32999;52.412;4.890;2022-07-29T06:02:31;101770.03;;;18.04;100.00
47260;BME280;32999;52.412;4.890;2022-07-29T06:07:33;101644.38;;;17.29;100.00
47260;BME280;32999;52.412;4.890;2022-07-29T06:12:34;101649.72;;;17.42;100.00
47260;BME280;32999;52.412;4.890;2022-07-29T06:17:37;101681.59;;;17.98;100.00
47260;BME280;32999;52.412;4.890;2022-07-29T06:22:39;101672.75;;;17.78;100.00
47260;BME280;32999;52.412;4.890;2022-07-29T06:27:41;101778.34;;;18.54;100.00
47260;BME280;32999;52.412;4.890;2022-07-29T06:32:44;101648.44;;;17.71;100.00
47260;BME280;32999;52.412;4.890;2022-07-29T06:37:45;101722.81;;;17.93;100.00
47260;BME280;32999;52.412;4.890;2022-07-29T06:42:47;101785.72;;;18.33;100.00
47260;BME280;32999;52.412;4.890;2022-07-29T06:47:50;101777.66;;;18.20;100.00
47260;BME280;32999;52.412;4.890;2022-07-29T06:52:52;101748.63;;;18.41;100.00
47260;BME280;32999;52.412;4.890;2022-07-29T06:57:53;101797.13;;;18.49;100.00
47260;BME280;32999;52.412;4.890;2022-07-29T07:02:56;101782.47;;;18.69;100.00
47260;BME280;32999;52.412;4.890;2022-07-29T07:07:58;101776.66;;;18.66;100.00
47260;BME280;32999;52.412;4.890;2022-07-29T07:12:59;101761.53;;;18.83;100.00
47260;BME280;32999;52.412;4.890;2022-07-29T07:18:03;101790.16;;;19.04;100.00
47260;BME280;32999;52.412;4.890;2022-07-29T07:23:06;101791.69;;;18.93;100.00
47260;BME280;32999;52.412;4.890;2022-07-29T07:28:07;101777.44;;;18.73;100.00
47260;BME280;32999;52.412;4.890;2022-07-29T07:33:10;101771.53;;;18.83;100.00
47260;BME280;32999;52.412;4.890;2022-07-29T07:38:12;101800.03;;;19.23;100.00
47260;BME280;32999;52.412;4.890;2022-07-29T07:43:14;101754.22;;;19.15;100.00
47260;BME280;32999;52.412;4.890;2022-07-29T07:48:17;101793.75;;;19.54;100.00
47260;BME280;32999;52.412;4.890;2022-07-29T07:53:19;101789.75;;;20.00;100.00
47260;BME280;32999;52.412;4.890;2022-07-29T07:58:20;101722.50;;;19.65;100.00
47260;BME280;32999;52.412;4.890;2022-07-29T08:03:23;101771.97;;;20.04;100.00
47260;BME280;32999;52.412;4.890;2022-07-29T08:08:25;101787.31;;;19.74;100.00
47260;BME280;32999;52.412;4.890;2022-07-29T08:13:27;101790.16;;;20.33;100.00
47260;BME280;32999;52.412;4.890;2022-07-29T08:18:31;101798.00;;;20.60;100.00
47260;BME280;32999;52.412;4.890;2022-07-29T08:23:33;101741.41;;;20.75;100.00
47260;BME280;32999;52.412;4.890;2022-07-29T08:28:39;101785.84;;;20.92;100.00
47260;BME280;32999;52.412;4.890;2022-07-29T08:33:43;101671.69;;;20.69;100.00
47260;BME280;32999;52.412;4.890;2022-07-29T08:38:44;101781.50;;;21.45;100.00
47260;BME280;32999;52.412;4.890;2022-07-29T08:43:46;101779.94;;;21.84;100.00
47260;BME280;32999;52.412;4.890;2022-07-29T08:48:50;101750.13;;;21.89;100.00
47260;BME280;32999;52.412;4.890;2022-07-29T08:53:52;101724.91;;;22.62;100.00
47260;BME280;32999;52.412;4.890;2022-07-29T08:58:54;101818.34;;;23.64;100.00
47260;BME280;32999;52.412;4.890;2022-07-29T09:04:01;101761.09;;;23.69;100.00
47260;BME280;32999;52.412;4.890;2022-07-29T09:09:04;101703.09;;;22.90;100.00
47260;BME280;32999;52.412;4.890;2022-07-29T09:14:06;101804.91;;;23.80;100.00
47260;BME280;32999;52.412;4.890;2022-07-29T09:19:19;101798.88;;;24.60;100.00
47260;BME280;32999;52.412;4.890;2022-07-29T09:24:21;101792.25;;;24.56;100.00
47260;BME280;32999;52.412;4.890;2022-07-29T09:29:23;101750.19;;;24.57;100.00
47260;BME280;32999;52.412;4.890;2022-07-29T09:34:28;101751.16;;;24.46;100.00
47260;BME280;32999;52.412;4.890;2022-07-29T09:39:32;101733.69;;;24.47;100.00
47260;BME280;32999;52.412;4.890;2022-07-29T09:44:46;101780.19;;;26.27;100.00
47260;BME280;32999;52.412;4.890;2022-07-29T09:49:53;101771.69;;;26.28;100.00
47260;BME280;32999;52.412;4.890;2022-07-29T09:55:04;101790.31;;;27.09;96.06
47260;BME280;32999;52.412;4.890;2022-07-29T10:00:08;101742.47;;;27.76;82.63
47260;BME280;32999;52.412;4.890;2022-07-29T10:05:19;101728.28;;;29.06;81.28
47260;BME280;32999;52.412;4.890;2022-07-29T10:10:23;101797.53;;;28.30;79.67
47260;BME280;32999;52.412;4.890;2022-07-29T10:15:26;101815.00;;;27.29;90.02
47260;BME280;32999;52.412;4.890;2022-07-29T10:20:30;101713.13;;;26.55;92.33
47260;BME280;32999;52.412;4.890;2022-07-29T10:25:32;101781.50;;;27.32;92.36
47260;BME280;32999;52.412;4.890;2022-07-29T10:30:33;101712.66;;;28.14;81.46
47260;BME280;32999;52.412;4.890;2022-07-29T10:35:47;101803.28;;;28.88;80.51
47260;BME280;32999;52.412;4.890;2022-07-29T10:41:00;101735.72;;;28.18;78.46
47260;BME280;32999;52.412;4.890;2022-07-29T10:46:21;101797.53;;;28.79;81.98
47260;BME280;32999;52.412;4.890;2022-07-29T10:51:24;101765.88;;;29.50;78.14
47260;BME280;32999;52.412;4.890;2022-07-29T10:56:28;101689.41;;;30.46;70.50
47260;BME280;32999;52.412;4.890;2022-07-29T11:01:30;101641.63;;;30.51;63.72
47260;BME280;32999;52.412;4.890;2022-07-29T11:12:47;101675.13;;;32.91;61.19
47260;BME280;32999;52.412;4.890;2022-07-29T11:18:08;101702.25;;;31.39;64.22
47260;BME280;32999;52.412;4.890;2022-07-29T11:23:24;101676.16;;;30.99;64.36
47260;BME280;32999;52.412;4.890;2022-07-29T11:28:29;101688.72;;;31.93;62.86
47260;BME280;32999;52.412;4.890;2022-07-29T11:33:32;101646.97;;;32.53;55.47
47260;BME280;32999;52.412;4.890;2022-07-29T11:38:34;101607.47;;;30.14;57.83
47260;BME280;32999;52.412;4.890;2022-07-29T11:43:50;101607.69;;;31.15;58.34
47260;BME280;32999;52.412;4.890;2022-07-29T11:48:52;101619.25;;;32.97;52.86
47260;BME280;32999;52.412;4.890;2022-07-29T11:53:55;101639.38;;;33.51;53.32
47260;BME280;32999;52.412;4.890;2022-07-29T11:59:04;101574.44;;;35.49;45.97
47260;BME280;32999;52.412;4.890;2022-07-29T12:04:07;101578.19;;;32.68;52.54
47260;BME280;32999;52.412;4.890;2022-07-29T12:09:13;101713.75;;;31.88;56.11
47260;BME280;32999;52.412;4.890;2022-07-29T12:14:27;101606.53;;;33.93;49.25
47260;BME280;32999;52.412;4.890;2022-07-29T12:19:42;101611.88;;;33.24;52.35
47260;BME280;32999;52.412;4.890;2022-07-29T12:24:44;101583.91;;;32.72;54.92
47260;BME280;32999;52.412;4.890;2022-07-29T12:29:56;101629.38;;;34.24;47.00
47260;BME280;32999;52.412;4.890;2022-07-29T12:35:01;101653.38;;;33.46;50.89
47260;BME280;32999;52.412;4.890;2022-07-29T12:40:20;101603.69;;;33.19;50.79
47260;BME280;32999;52.412;4.890;2022-07-29T12:45:30;101620.69;;;32.86;51.89
47260;BME280;32999;52.412;4.890;2022-07-29T12:50:32;101701.44;;;31.80;57.75
47260;BME280;32999;52.412;4.890;2022-07-29T12:55:46;101670.78;;;32.04;57.21
47260;BME280;32999;52.412;4.890;2022-07-29T13:01:03;101709.28;;;29.63;65.06
47260;BME280;32999;52.412;4.890;2022-07-29T13:06:06;101648.22;;;29.74;66.83
47260;BME280;32999;52.412;4.890;2022-07-29T13:11:30;101667.53;;;30.87;62.95
47260;BME280;32999;52.412;4.890;2022-07-29T13:17:00;101659.00;;;33.72;57.62
47260;BME280;32999;52.412;4.890;2022-07-29T13:22:10;101710.94;;;32.51;56.98
47260;BME280;32999;52.412;4.890;2022-07-29T13:27:13;101653.13;;;31.91;59.73
47260;BME280;32999;52.412;4.890;2022-07-29T13:32:17;101661.88;;;29.42;64.81
47260;BME280;32999;52.412;4.890;2022-07-29T13:37:20;101716.44;;;27.23;85.31
47260;BME280;32999;52.412;4.890;2022-07-29T13:42:22;101695.34;;;26.93;91.00
47260;BME280;32999;52.412;4.890;2022-07-29T13:47:26;101672.22;;;26.23;99.24
47260;BME280;32999;52.412;4.890;2022-07-29T13:52:28;101694.78;;;25.72;100.00
47260;BME280;32999;52.412;4.890;2022-07-29T13:57:30;101681.63;;;25.74;100.00
47260;BME280;32999;52.412;4.890;2022-07-29T14:02:33;101696.44;;;25.36;100.00
47260;BME280;32999;52.412;4.890;2022-07-29T14:07:35;101749.88;;;25.49;100.00
47260;BME280;32999;52.412;4.890;2022-07-29T14:12:38;101689.28;;;24.93;100.00
47260;BME280;32999;52.412;4.890;2022-07-29T14:17:43;101691.63;;;25.12;100.00
47260;BME280;32999;52.412;4.890;2022-07-29T14:22:45;101698.66;;;25.87;99.88
47260;BME280;32999;52.412;4.890;2022-07-29T14:27:47;101676.09;;;24.85;100.00
47260;BME280;32999;52.412;4.890;2022-07-29T14:32:50;101667.78;;;25.44;100.00
47260;BME280;32999;52.412;4.890;2022-07-29T14:37:52;101674.50;;;25.68;98.81
47260;BME280;32999;52.412;4.890;2022-07-29T14:42:54;101737.25;;;25.80;100.00
47260;BME280;32999;52.412;4.890;2022-07-29T14:47:57;101690.81;;;25.11;100.00
47260;BME280;32999;52.412;4.890;2022-07-29T14:53:00;101684.63;;;25.68;98.43
47260;BME280;32999;52.412;4.890;2022-07-29T14:58:04;101628.25;;;25.30;100.00
47260;BME280;32999;52.412;4.890;2022-07-29T15:03:07;101622.78;;;24.56;100.00
47260;BME280;32999;52.412;4.890;2022-07-29T15:08:10;101619.38;;;24.70;100.00
47260;BME280;32999;52.412;4.890;2022-07-29T15:13:12;101738.84;;;24.70;100.00
47260;BME280;32999;52.412;4.890;2022-07-29T15:18:15;101753.38;;;25.02;100.00
47260;BME280;32999;52.412;4.890;2022-07-29T15:23:18;101677.28;;;24.35;100.00
47260;BME280;32999;52.412;4.890;2022-07-29T15:28:19;101735.31;;;25.01;100.00
47260;BME280;32999;52.412;4.890;2022-07-29T15:33:24;101657.91;;;24.15;100.00
47260;BME280;32999;52.412;4.890;2022-07-29T15:38:26;101710.38;;;24.17;100.00
47260;BME280;32999;52.412;4.890;2022-07-29T15:43:32;101732.94;;;24.56;100.00
47260;BME280;32999;52.412;4.890;2022-07-29T15:48:41;101693.09;;;24.33;100.00
47260;BME280;32999;52.412;4.890;2022-07-29T15:53:53;101729.03;;;24.74;100.00
47260;BME280;32999;52.412;4.890;2022-07-29T15:58:56;101647.34;;;24.51;100.00
47260;BME280;32999;52.412;4.890;2022-07-29T16:04:09;101730.38;;;24.98;100.00
47260;BME280;32999;52.412;4.890;2022-07-29T16:14:33;101613.75;;;24.87;100.00
47260;BME280;32999;52.412;4.890;2022-07-29T16:19:49;101715.16;;;25.97;100.00
47260;BME280;32999;52.412;4.890;2022-07-29T16:24:53;101668.06;;;26.15;98.69
47260;BME280;32999;52.412;4.890;2022-07-29T16:29:57;101612.25;;;25.59;100.00
47260;BME280;32999;52.412;4.890;2022-07-29T16:35:02;101683.25;;;25.70;100.00
47260;BME280;32999;52.412;4.890;2022-07-29T16:40:10;101625.09;;;25.48;100.00
47260;BME280;32999;52.412;4.890;2022-07-29T16:45:15;101715.44;;;26.05;100.00
47260;BME280;32999;52.412;4.890;2022-07-29T16:50:18;101627.09;;;25.16;100.00
47260;BME280;32999;52.412;4.890;2022-07-29T16:55:20;101712.31;;;25.34;100.00
47260;BME280;32999;52.412;4.890;2022-07-29T17:00:22;101745.41;;;25.33;100.00
47260;BME280;32999;52.412;4.890;2022-07-29T17:05:25;101748.16;;;25.33;100.00
47260;BME280;32999;52.412;4.890;2022-07-29T17:10:27;101682.56;;;24.74;100.00
47260;BME280;32999;52.412;4.890;2022-07-29T17:15:29;101672.16;;;24.71;100.00
47260;BME280;32999;52.412;4.890;2022-07-29T17:20:32;101668.75;;;24.59;100.00
47260;BME280;32999;52.412;4.890;2022-07-29T17:25:35;101763.47;;;24.75;100.00
47260;BME280;32999;52.412;4.890;2022-07-29T17:30:37;101743.25;;;24.76;100.00
47260;BME280;32999;52.412;4.890;2022-07-29T17:35:40;101721.63;;;24.21;100.00
47260;BME280;32999;52.412;4.890;2022-07-29T17:41:01;101746.56;;;24.24;100.00
47260;BME280;32999;52.412;4.890;2022-07-29T17:46:02;101764.56;;;24.25;100.00
47260;BME280;32999;52.412;4.890;2022-07-29T17:51:10;101726.78;;;23.95;100.00
47260;BME280;32999;52.412;4.890;2022-07-29T17:56:14;101700.91;;;23.59;100.00
47260;BME280;32999;52.412;4.890;2022-07-29T18:01:17;101766.34;;;23.93;100.00
47260;BME280;32999;52.412;4.890;2022-07-29T18:06:20;101741.16;;;23.69;100.00
47260;BME280;32999;52.412;4.890;2022-07-29T18:11:22;101740.75;;;23.60;100.00
47260;BME280;32999;52.412;4.890;2022-07-29T18:16:23;101765.91;;;23.62;100.00
47260;BME280;32999;52.412;4.890;2022-07-29T18:21:26;101758.53;;;23.46;100.00
47260;BME280;32999;52.412;4.890;2022-07-29T18:26:28;101698.13;;;22.87;100.00
47260;BME280;32999;52.412;4.890;2022-07-29T18:31:30;101739.59;;;23.06;100.00
47260;BME280;32999;52.412;4.890;2022-07-29T18:36:33;101780.94;;;23.15;100.00
47260;BME280;32999;52.412;4.890;2022-07-29T18:41:35;101777.06;;;23.11;100.00
47260;BME280;32999;52.412;4.890;2022-07-29T18:46:38;101694.25;;;22.55;100.00
47260;BME280;32999;52.412;4.890;2022-07-29T18:51:41;101674.19;;;22.44;100.00
47260;BME280;32999;52.412;4.890;2022-07-29T18:56:42;101794.72;;;22.91;100.00
47260;BME280;32999;52.412;4.890;2022-07-29T19:01:44;101797.47;;;22.80;100.00
47260;BME280;32999;52.412;4.890;2022-07-29T19:07:01;101812.22;;;22.67;100.00
47260;BME280;32999;52.412;4.890;2022-07-29T19:12:05;101778.91;;;22.36;100.00
47260;BME280;32999;52.412;4.890;2022-07-29T19:17:15;101713.25;;;21.69;100.00
47260;BME280;32999;52.412;4.890;2022-07-29T19:22:18;101814.97;;;22.15;100.00
47260;BME280;32999;52.412;4.890;2022-07-29T19:27:21;101725.34;;;21.50;100.00
47260;BME280;32999;52.412;4.890;2022-07-29T19:32:22;101834.97;;;21.86;100.00
47260;BME280;32999;52.412;4.890;2022-07-29T19:37:25;101793.78;;;21.47;100.00
47260;BME280;32999;52.412;4.890;2022-07-29T19:42:27;101778.34;;;21.18;100.00
47260;BME280;32999;52.412;4.890;2022-07-29T19:47:29;101735.38;;;20.73;100.00
47260;BME280;32999;52.412;4.890;2022-07-29T19:52:32;101870.00;;;21.29;100.00
47260;BME280;32999;52.412;4.890;2022-07-29T19:57:33;101836.00;;;21.08;100.00
47260;BME280;32999;52.412;4.890;2022-07-29T20:02:35;101861.91;;;21.11;100.00
47260;BME280;32999;52.412;4.890;2022-07-29T20:07:38;101837.66;;;20.79;100.00
47260;BME280;32999;52.412;4.890;2022-07-29T20:12:40;101856.00;;;20.84;100.00
47260;BME280;32999;52.412;4.890;2022-07-29T20:17:42;101768.31;;;20.10;100.00
47260;BME280;32999;52.412;4.890;2022-07-29T20:22:45;101878.91;;;20.76;100.00
47260;BME280;32999;52.412;4.890;2022-07-29T20:27:46;101871.69;;;20.52;100.00
47260;BME280;32999;52.412;4.890;2022-07-29T20:32:51;101813.47;;;20.04;100.00
47260;BME280;32999;52.412;4.890;2022-07-29T20:37:54;101817.50;;;20.02;100.00
47260;BME280;32999;52.412;4.890;2022-07-29T20:42:55;101884.94;;;20.42;100.00
47260;BME280;32999;52.412;4.890;2022-07-29T20:47:57;101891.81;;;20.44;100.00
47260;BME280;32999;52.412;4.890;2022-07-29T20:53:00;101883.66;;;20.44;100.00
47260;BME280;32999;52.412;4.890;2022-07-29T20:58:03;101884.97;;;20.35;100.00
47260;BME280;32999;52.412;4.890;2022-07-29T21:03:05;101885.75;;;20.24;100.00
47260;BME280;32999;52.412;4.890;2022-07-29T21:08:08;101883.47;;;20.21;100.00
47260;BME280;32999;52.412;4.890;2022-07-29T21:13:10;101872.13;;;20.05;100.00
47260;BME280;32999;52.412;4.890;2022-07-29T21:18:13;101865.41;;;19.90;100.00
47260;BME280;32999;52.412;4.890;2022-07-29T21:23:27;101886.00;;;19.97;100.00
47260;BME280;32999;52.412;4.890;2022-07-29T21:28:30;101887.88;;;19.97;100.00
47260;BME280;32999;52.412;4.890;2022-07-29T21:33:36;101772.72;;;19.25;100.00
47260;BME280;32999;52.412;4.890;2022-07-29T21:38:41;101881.34;;;19.80;100.00
47260;BME280;32999;52.412;4.890;2022-07-29T21:43:42;101813.38;;;19.25;100.00
47260;BME280;32999;52.412;4.890;2022-07-29T21:48:47;101818.16;;;19.23;100.00
47260;BME280;32999;52.412;4.890;2022-07-29T21:53:50;101873.88;;;19.50;100.00
47260;BME280;32999;52.412;4.890;2022-07-29T21:58:52;101793.53;;;18.99;100.00
47260;BME280;32999;52.412;4.890;2022-07-29T22:03:53;101872.88;;;19.38;100.00
47260;BME280;32999;52.412;4.890;2022-07-29T22:08:57;101872.06;;;19.37;100.00
47260;BME280;32999;52.412;4.890;2022-07-29T22:13:59;101859.63;;;19.30;100.00
47260;BME280;32999;52.412;4.890;2022-07-29T22:19:07;101880.50;;;19.23;100.00
47260;BME280;32999;52.412;4.890;2022-07-29T22:24:10;101760.47;;;18.46;100.00
47260;BME280;32999;52.412;4.890;2022-07-29T22:29:12;101836.94;;;18.86;100.00
47260;BME280;32999;52.412;4.890;2022-07-29T22:34:16;101851.91;;;18.95;100.00
47260;BME280;32999;52.412;4.890;2022-07-29T22:39:19;101890.78;;;19.08;100.00
47260;BME280;32999;52.412;4.890;2022-07-29T22:44:21;101829.75;;;18.67;100.00
47260;BME280;32999;52.412;4.890;2022-07-29T22:49:24;101868.66;;;18.79;100.00
47260;BME280;32999;52.412;4.890;2022-07-29T22:54:27;101894.44;;;18.88;100.00
47260;BME280;32999;52.412;4.890;2022-07-29T22:59:29;101900.72;;;18.82;100.00
47260;BME280;32999;52.412;4.890;2022-07-29T23:04:31;101821.59;;;18.16;100.00
47260;BME280;32999;52.412;4.890;2022-07-29T23:09:34;101875.81;;;18.60;100.00
47260;BME280;32999;52.412;4.890;2022-07-29T23:14:35;101895.56;;;18.74;100.00
47260;BME280;32999;52.412;4.890;2022-07-29T23:19:37;101887.84;;;18.71;100.00
47260;BME280;32999;52.412;4.890;2022-07-29T23:24:40;101897.44;;;18.67;100.00
47260;BME280;32999;52.412;4.890;2022-07-29T23:29:42;101870.84;;;18.44;100.00
47260;BME280;32999;52.412;4.890;2022-07-29T23:34:43;101892.47;;;18.64;100.00
47260;BME280;32999;52.412;4.890;2022-07-29T23:39:46;101835.50;;;18.26;100.00
47260;BME280;32999;52.412;4.890;2022-07-29T23:44:51;101887.03;;;18.57;100.00
47260;BME280;32999;52.412;4.890;2022-07-29T23:49:53;101882.28;;;18.53;100.00
47260;BME280;32999;52.412;4.890;2022-07-29T23:54:56;101890.63;;;18.45;100.00
47260;BME280;32999;52.412;4.890;2022-07-29T23:59:58;101881.69;;;18.38;100.00
